createdAt,value
2022-10-29T00:00:54.912Z,101555.72
2022-10-29T00:03:22.017Z,101559.78
2022-10-29T00:06:02.620Z,101562.38
2022-10-29T00:08:30.949Z,101553.31
2022-10-29T00:11:07.217Z,101563.97
2022-10-29T00:13:34.266Z,101570.34
2022-10-29T00:16:04.933Z,101561.63
2022-10-29T00:18:31.437Z,101565.50
2022-10-29T00:21:06.263Z,101564.31
2022-10-29T00:23:32.930Z,101573.59
2022-10-29T00:26:00.105Z,101567.81
2022-10-29T00:28:27.741Z,101567.94
2022-10-29T00:30:54.702Z,101562.19
2022-10-29T00:33:21.793Z,101569.34
2022-10-29T00:36:03.473Z,101563.59
2022-10-29T00:38:32.579Z,101567.25
2022-10-29T00:40:59.361Z,101575.97
2022-10-29T00:43:26.791Z,101575.00
2022-10-29T00:45:57.774Z,101575.09
2022-10-29T00:48:27.634Z,101565.28
2022-10-29T00:50:56.281Z,101563.34
2022-10-29T00:53:28.719Z,101558.81
2022-10-29T00:55:55.245Z,101563.13
2022-10-29T00:58:22.001Z,101563.97
2022-10-29T01:00:48.518Z,101561.88
2022-10-29T01:03:15.079Z,101553.16
2022-10-29T01:05:42.485Z,101551.41
2022-10-29T01:08:09.105Z,101544.28
2022-10-29T01:11:09.969Z,101544.91
2022-10-29T01:13:47.637Z,101533.16
2022-10-29T01:16:39.285Z,101530.22
2022-10-29T01:19:40.714Z,101524.31
2022-10-29T01:22:18.164Z,101528.09
2022-10-29T01:25:21.647Z,101512.78
2022-10-29T01:28:17.241Z,101514.09
2022-10-29T01:31:00.801Z,101515.09
2022-10-29T01:33:34.661Z,101509.94
2022-10-29T01:36:16.141Z,101513.59
2022-10-29T01:39:03.009Z,101509.94
2022-10-29T01:41:54.209Z,101500.00
2022-10-29T01:44:40.235Z,101500.41
2022-10-29T01:47:15.312Z,101492.41
2022-10-29T01:49:44.444Z,101497.72
2022-10-29T01:52:15.380Z,101490.47
2022-10-29T01:54:43.354Z,101497.47
2022-10-29T01:57:33.131Z,101492.69
2022-10-29T02:00:09.962Z,101489.88
2022-10-29T02:02:48.374Z,101485.34
2022-10-29T02:05:30.301Z,101482.66
2022-10-29T02:08:23.576Z,101486.19
2022-10-29T02:10:59.229Z,101486.66
2022-10-29T02:13:31.866Z,101492.06
2022-10-29T02:16:00.401Z,101485.94
2022-10-29T02:18:27.051Z,101493.91
2022-10-29T02:20:53.622Z,101488.41
2022-10-29T02:23:20.154Z,101495.38
2022-10-29T02:25:46.666Z,101493.81
2022-10-29T02:28:13.349Z,101485.06
2022-10-29T02:30:39.964Z,101479.81
2022-10-29T02:33:06.451Z,101482.00
2022-10-29T02:35:32.976Z,101489.47
2022-10-29T02:37:59.526Z,101488.47
2022-10-29T02:40:26.083Z,101493.88
2022-10-29T02:42:52.753Z,101496.06
2022-10-29T02:45:19.385Z,101492.25
2022-10-29T02:47:45.944Z,101484.06
2022-10-29T02:50:12.480Z,101484.91
2022-10-29T02:52:40.034Z,101480.50
2022-10-29T02:55:06.794Z,101480.28
2022-10-29T02:57:33.283Z,101479.03
2022-10-29T02:59:59.752Z,101479.03
2022-10-29T03:02:29.187Z,101469.88
2022-10-29T03:04:55.812Z,101475.16
2022-10-29T03:07:22.300Z,101467.94
2022-10-29T03:09:48.764Z,101479.03
2022-10-29T03:12:15.254Z,101483.72
2022-10-29T03:14:41.737Z,101476.34
2022-10-29T03:17:08.422Z,101477.34
2022-10-29T03:19:34.893Z,101480.13
2022-10-29T03:22:01.404Z,101482.72
2022-10-29T03:24:27.875Z,101472.19
2022-10-29T03:26:54.456Z,101471.22
2022-10-29T03:29:20.962Z,101480.38
2022-10-29T03:31:47.537Z,101479.66
2022-10-29T03:34:14.053Z,101470.69
2022-10-29T03:36:40.523Z,101476.81
2022-10-29T03:39:07.043Z,101467.88
2022-10-29T03:41:33.520Z,101472.41
2022-10-29T03:44:00.016Z,101471.66
2022-10-29T03:46:26.612Z,101477.06
2022-10-29T03:48:53.092Z,101477.19
2022-10-29T03:51:19.582Z,101477.28
2022-10-29T03:53:46.173Z,101469.72
2022-10-29T03:56:12.665Z,101471.06
2022-10-29T03:58:39.193Z,101465.75
2022-10-29T04:01:08.195Z,101463.28
2022-10-29T04:03:36.269Z,101471.72
2022-10-29T04:06:10.360Z,101476.59
2022-10-29T04:08:37.580Z,101475.00
2022-10-29T04:11:04.538Z,101474.03
2022-10-29T04:13:31.072Z,101475.75
2022-10-29T04:15:57.620Z,101477.22
2022-10-29T04:18:24.760Z,101477.38
2022-10-29T04:29:11.253Z,101479.09
2022-10-29T04:31:38.135Z,101475.53
2022-10-29T04:34:05.024Z,101480.81
2022-10-29T04:36:31.565Z,101478.31
2022-10-29T04:38:58.063Z,101482.63
2022-10-29T04:41:24.627Z,101486.53
2022-10-29T04:43:51.137Z,101481.03
2022-10-29T04:46:17.624Z,101476.97
2022-10-29T04:48:44.190Z,101470.19
2022-10-29T04:51:21.549Z,101465.31
2022-10-29T04:53:48.303Z,101467.69
2022-10-29T04:56:14.840Z,101464.00
2022-10-29T04:58:41.393Z,101473.19
2022-10-29T05:01:07.939Z,101484.16
2022-10-29T05:03:34.956Z,101474.25
2022-10-29T05:06:05.691Z,101484.16
2022-10-29T05:08:32.662Z,101477.16
2022-10-29T05:11:04.973Z,101471.91
2022-10-29T05:13:32.413Z,101483.03
2022-10-29T05:15:58.984Z,101487.44
2022-10-29T05:18:25.762Z,101484.00
2022-10-29T05:20:56.061Z,101486.06
2022-10-29T05:23:22.593Z,101483.28
2022-10-29T05:25:51.248Z,101478.63
2022-10-29T05:28:22.253Z,101469.78
2022-10-29T05:30:50.423Z,101480.78
2022-10-29T05:33:24.721Z,101483.81
2022-10-29T05:35:51.658Z,101481.13
2022-10-29T05:38:18.251Z,101484.34
2022-10-29T05:40:45.457Z,101486.19
2022-10-29T05:43:16.399Z,101481.13
2022-10-29T05:45:43.524Z,101487.16
2022-10-29T05:50:38.881Z,101495.28
2022-10-29T05:53:07.266Z,101491.50
2022-10-29T05:55:37.280Z,101485.25
2022-10-29T05:58:06.444Z,101478.91
2022-10-29T06:00:35.580Z,101473.72
2022-10-29T06:03:02.337Z,101478.38
2022-10-29T06:05:29.243Z,101483.66
2022-10-29T06:07:57.553Z,101486.56
2022-10-29T06:10:25.354Z,101473.31
2022-10-29T06:12:51.938Z,101466.72
2022-10-29T06:15:18.743Z,101472.09
2022-10-29T06:17:46.212Z,101473.84
2022-10-29T06:20:14.336Z,101477.38
2022-10-29T06:22:41.559Z,101487.00
2022-10-29T06:25:09.996Z,101494.16
2022-10-29T06:27:37.349Z,101495.25
2022-10-29T06:30:05.037Z,101488.97
2022-10-29T06:32:32.821Z,101494.69
2022-10-29T06:34:59.316Z,101493.81
2022-10-29T06:37:25.814Z,101495.25
2022-10-29T06:39:52.313Z,101497.94
2022-10-29T06:42:18.801Z,101505.25
2022-10-29T06:44:45.316Z,101505.13
2022-10-29T06:47:11.784Z,101497.69
2022-10-29T06:49:38.318Z,101507.09
2022-10-29T06:52:05.133Z,101498.91
2022-10-29T06:54:31.633Z,101502.56
2022-10-29T06:56:58.122Z,101504.06
2022-10-29T06:59:24.624Z,101492.22
2022-10-29T07:01:51.220Z,101482.81
2022-10-29T07:04:18.542Z,101485.63
2022-10-29T07:06:45.218Z,101493.81
2022-10-29T07:09:11.749Z,101492.94
2022-10-29T07:11:38.401Z,101494.91
2022-10-29T07:14:06.024Z,101488.53
2022-10-29T07:16:32.705Z,101494.78
2022-10-29T07:18:59.472Z,101496.72
2022-10-29T07:21:25.948Z,101502.88
2022-10-29T07:23:52.479Z,101506.31
2022-10-29T07:26:19.583Z,101503.63
2022-10-29T07:28:46.184Z,101508.91
2022-10-29T07:31:12.669Z,101513.53
2022-10-29T07:33:39.174Z,101519.44
2022-10-29T07:36:06.152Z,101528.59
2022-10-29T07:38:32.639Z,101534.97
2022-10-29T07:40:59.647Z,101530.22
2022-10-29T07:43:26.149Z,101514.72
2022-10-29T07:45:52.720Z,101508.75
2022-10-29T07:48:20.430Z,101507.22
2022-10-29T07:50:48.113Z,101501.19
2022-10-29T07:53:14.677Z,101503.78
2022-10-29T07:55:41.482Z,101511.97
2022-10-29T07:58:11.417Z,101508.28
2022-10-29T08:00:40.435Z,101504.50
2022-10-29T08:03:07.508Z,101505.72
2022-10-29T08:05:34.339Z,101508.19
2022-10-29T08:08:01.060Z,101503.44
2022-10-29T08:10:29.625Z,101505.50
2022-10-29T08:13:00.989Z,101505.38
2022-10-29T08:15:30.548Z,101508.81
2022-10-29T08:17:57.331Z,101507.09
2022-10-29T08:20:26.296Z,101511.75
2022-10-29T08:22:52.796Z,101506.25
2022-10-29T08:25:19.843Z,101502.69
2022-10-29T08:27:46.408Z,101499.91
2022-10-29T08:30:14.597Z,101506.13
2022-10-29T08:32:47.116Z,101514.72
2022-10-29T08:35:14.635Z,101521.84
2022-10-29T08:37:45.268Z,101513.75
2022-10-29T08:40:31.815Z,101515.81
2022-10-29T08:43:19.424Z,101521.22
2022-10-29T08:45:48.708Z,101522.09
2022-10-29T08:48:33.567Z,101514.63
2022-10-29T08:51:15.218Z,101509.75
2022-10-29T08:53:58.662Z,101494.31
2022-10-29T08:56:38.262Z,101493.25
2022-10-29T08:59:10.783Z,101495.09
2022-10-29T09:01:38.068Z,101487.50
2022-10-29T09:04:18.043Z,101498.97
2022-10-29T09:07:03.225Z,101497.38
2022-10-29T09:09:38.412Z,101486.47
2022-10-29T09:12:04.845Z,101498.88
2022-10-29T09:14:31.313Z,101509.00
2022-10-29T09:17:03.177Z,101495.09
2022-10-29T09:19:32.354Z,101477.06
2022-10-29T09:22:21.805Z,101494.56
2022-10-29T09:24:54.240Z,101500.28
2022-10-29T09:27:26.581Z,101497.91
2022-10-29T09:30:14.186Z,101489.88
2022-10-29T09:32:56.401Z,101492.00
2022-10-29T09:35:38.572Z,101493.72
2022-10-29T09:38:19.019Z,101493.19
2022-10-29T09:40:46.309Z,101496.50
2022-10-29T09:43:21.768Z,101498.84
2022-10-29T09:45:53.840Z,101495.06
2022-10-29T09:48:36.580Z,101482.97
2022-10-29T09:51:23.067Z,101479.66
2022-10-29T09:53:51.257Z,101479.41
2022-10-29T09:56:18.085Z,101470.44
2022-10-29T09:58:49.558Z,101465.81
2022-10-29T10:01:16.550Z,101473.66
2022-10-29T10:03:47.299Z,101471.72
2022-10-29T10:06:16.200Z,101465.72
2022-10-29T10:09:04.585Z,101471.72
2022-10-29T10:11:38.678Z,101468.88
2022-10-29T10:14:17.960Z,101467.06
2022-10-29T10:16:44.781Z,101463.38
2022-10-29T10:19:26.910Z,101459.94
2022-10-29T10:21:59.685Z,101463.22
2022-10-29T10:24:37.406Z,101461.25
2022-10-29T10:27:19.209Z,101461.50
2022-10-29T10:30:04.516Z,101453.63
2022-10-29T10:32:31.784Z,101451.19
2022-10-29T10:34:58.288Z,101454.00
2022-10-29T10:37:24.819Z,101446.63
2022-10-29T10:40:00.302Z,101449.13
2022-10-29T10:42:30.901Z,101452.31
2022-10-29T10:45:03.570Z,101449.53
2022-10-29T10:47:35.512Z,101446.31
2022-10-29T10:50:18.915Z,101437.59
2022-10-29T10:52:45.965Z,101436.94
2022-10-29T10:55:50.624Z,101438.22
2022-10-29T10:58:26.683Z,101424.28
2022-10-29T11:01:18.994Z,101435.91
2022-10-29T11:03:48.750Z,101429.28
2022-10-29T11:06:16.997Z,101423.91
2022-10-29T11:08:51.597Z,101423.06
2022-10-29T11:11:22.200Z,101427.00
2022-10-29T11:13:50.605Z,101418.41
2022-10-29T11:16:41.216Z,101422.34
2022-10-29T11:19:28.519Z,101416.56
2022-10-29T11:22:37.263Z,101411.56
2022-10-29T11:25:16.086Z,101415.88
2022-10-29T11:27:53.632Z,101411.09
2022-10-29T11:30:20.922Z,101410.72
2022-10-29T11:33:10.147Z,101405.94
2022-10-29T11:35:55.003Z,101407.28
2022-10-29T11:38:45.937Z,101406.66
2022-10-29T11:41:38.193Z,101403.34
2022-10-29T11:44:12.079Z,101388.38
2022-10-29T11:46:49.319Z,101386.69
2022-10-29T11:49:55.774Z,101385.59
2022-10-29T11:52:33.258Z,101381.50
2022-10-29T11:55:17.503Z,101389.50
2022-10-29T11:57:59.122Z,101389.38
2022-10-29T12:00:32.322Z,101387.28
2022-10-29T12:03:18.468Z,101385.94
2022-10-29T12:05:58.491Z,101387.03
2022-10-29T12:08:48.316Z,101384.34
2022-10-29T12:11:21.308Z,101383.13
2022-10-29T12:13:50.391Z,101379.44
2022-10-29T12:16:28.802Z,101380.09
2022-10-29T12:19:18.282Z,101381.28
2022-10-29T12:21:56.012Z,101371.97
2022-10-29T12:24:46.594Z,101368.19
2022-10-29T12:27:27.822Z,101369.28
2022-10-29T12:30:05.550Z,101370.38
2022-10-29T12:33:00.947Z,101363.16
2022-10-29T12:35:55.509Z,101353.59
2022-10-29T12:38:42.152Z,101350.28
2022-10-29T12:41:21.929Z,101345.25
2022-10-29T12:43:50.784Z,101340.69
2022-10-29T12:46:43.470Z,101334.84
2022-10-29T12:49:36.324Z,101332.00
2022-10-29T12:52:10.165Z,101333.97
2022-10-29T12:54:49.629Z,101331.38
2022-10-29T12:57:16.062Z,101327.47
2022-10-29T12:59:43.920Z,101331.16
2022-10-29T13:02:30.369Z,101332.00
2022-10-29T13:05:05.900Z,101320.34
2022-10-29T13:07:33.957Z,101319.09
2022-10-29T13:10:22.319Z,101322.44
2022-10-29T13:13:13.702Z,101320.81
2022-10-29T13:15:43.961Z,101332.72
2022-10-29T13:18:31.682Z,101331.84
2022-10-29T13:20:59.196Z,101323.63
2022-10-29T13:23:27.494Z,101326.22
2022-10-29T13:25:55.592Z,101330.03
2022-10-29T13:28:22.030Z,101322.66
2022-10-29T13:30:50.436Z,101321.69
2022-10-29T13:33:26.134Z,101320.94
2022-10-29T13:35:56.532Z,101321.06
2022-10-29T13:38:51.912Z,101323.63
2022-10-29T13:41:43.440Z,101322.91
2022-10-29T13:44:11.912Z,101322.66
2022-10-29T13:46:52.912Z,101322.19
2022-10-29T13:49:24.623Z,101318.25
2022-10-29T13:51:54.097Z,101311.38
2022-10-29T13:54:30.427Z,101314.22
2022-10-29T13:57:28.941Z,101308.44
2022-10-29T14:00:15.726Z,101311.78
2022-10-29T14:02:42.271Z,101310.03
2022-10-29T14:05:14.685Z,101314.69
2022-10-29T14:08:03.149Z,101309.66
2022-10-29T14:10:34.740Z,101302.53
2022-10-29T14:13:23.525Z,101298.97
2022-10-29T14:16:06.310Z,101291.25
2022-10-29T14:18:43.760Z,101294.72
2022-10-29T14:21:21.617Z,101299.13
2022-10-29T14:24:09.747Z,101311.97
2022-10-29T14:26:39.418Z,101305.72
2022-10-29T14:29:22.284Z,101308.78
2022-10-29T14:32:07.797Z,101307.69
2022-10-29T14:34:34.419Z,101307.69
2022-10-29T14:37:14.831Z,101308.94
2022-10-29T14:39:57.857Z,101307.22
2022-10-29T14:42:41.046Z,101309.66
2022-10-29T14:45:17.771Z,101305.38
2022-10-29T14:47:50.234Z,101298.25
2022-10-29T14:50:22.611Z,101298.38
2022-10-29T14:52:55.863Z,101297.66
2022-10-29T14:55:30.635Z,101299.34
2022-10-29T14:58:05.396Z,101309.91
2022-10-29T15:00:37.029Z,101298.88
2022-10-29T15:03:06.153Z,101307.69
2022-10-29T15:05:36.159Z,101308.78
2022-10-29T15:08:08.771Z,101300.09
2022-10-29T15:10:50.139Z,101296.88
2022-10-29T15:13:36.837Z,101297.88
2022-10-29T15:16:09.948Z,101297.03
2022-10-29T15:18:38.140Z,101288.69
2022-10-29T15:21:05.772Z,101289.66
2022-10-29T15:23:35.480Z,101286.25
2022-10-29T15:26:08.118Z,101282.56
2022-10-29T15:28:40.095Z,101264.41
2022-10-29T15:31:07.714Z,101271.41
2022-10-29T15:33:36.021Z,101268.81
2022-10-29T15:36:04.600Z,101270.91
2022-10-29T15:38:31.151Z,101275.31
2022-10-29T15:41:18.954Z,101270.91
2022-10-29T15:43:57.434Z,101282.31
2022-10-29T15:46:35.351Z,101272.50
2022-10-29T15:49:01.831Z,101273.25
2022-10-29T15:51:30.389Z,101280.47
2022-10-29T15:53:58.965Z,101286.75
2022-10-29T15:56:25.868Z,101288.44
2022-10-29T15:58:53.384Z,101281.94
2022-10-29T16:01:19.927Z,101279.50
2022-10-29T16:03:46.609Z,101293.25
2022-10-29T16:06:15.712Z,101305.47
2022-10-29T16:08:48.197Z,101299.59
2022-10-29T16:11:22.849Z,101300.34
2022-10-29T16:13:54.668Z,101291.25
2022-10-29T16:16:24.146Z,101285.47
2022-10-29T16:18:51.469Z,101289.44
2022-10-29T16:21:24.350Z,101284.38
2022-10-29T16:23:51.635Z,101288.94
2022-10-29T16:26:20.848Z,101283.56
2022-10-29T16:28:47.733Z,101297.66
2022-10-29T16:31:25.917Z,101282.06
2022-10-29T16:33:55.313Z,101287.19
2022-10-29T16:36:21.991Z,101292.84
2022-10-29T16:38:48.560Z,101286.09
2022-10-29T16:41:17.629Z,101269.78
2022-10-29T16:43:44.683Z,101271.38
2022-10-29T16:46:12.747Z,101273.22
2022-10-29T16:48:39.937Z,101261.44
2022-10-29T16:51:06.886Z,101261.69
2022-10-29T16:53:33.751Z,101275.28
2022-10-29T16:56:01.601Z,101272.75
2022-10-29T16:58:28.319Z,101277.38
2022-10-29T17:01:10.420Z,101279.09
2022-10-29T17:03:39.068Z,101276.16
2022-10-29T17:06:07.818Z,101268.94
2022-10-29T17:08:36.126Z,101265.97
2022-10-29T17:11:06.007Z,101254.31
2022-10-29T17:13:34.122Z,101251.88
2022-10-29T17:16:00.654Z,101271.00
2022-10-29T17:18:27.138Z,101269.19
2022-10-29T17:21:01.285Z,101277.16
2022-10-29T17:23:29.054Z,101284.16
2022-10-29T17:25:56.875Z,101283.78
2022-10-29T17:28:25.117Z,101272.13
2022-10-29T17:30:52.076Z,101246.38
2022-10-29T17:33:19.349Z,101243.41
2022-10-29T17:35:46.149Z,101248.94
2022-10-29T17:38:13.090Z,101248.09
2022-10-29T17:40:43.037Z,101249.31
2022-10-29T17:43:09.631Z,101254.72
2022-10-29T17:45:37.055Z,101247.50
2022-10-29T17:48:03.753Z,101241.09
2022-10-29T17:50:30.319Z,101252.41
2022-10-29T17:52:57.969Z,101259.72
2022-10-29T17:55:24.745Z,101256.16
2022-10-29T17:57:51.278Z,101277.88
2022-10-29T18:00:17.922Z,101280.47
2022-10-29T18:02:44.543Z,101271.38
2022-10-29T18:05:11.100Z,101267.38
2022-10-29T18:07:37.619Z,101270.91
2022-10-29T18:10:04.356Z,101264.16
2022-10-29T18:12:30.894Z,101262.91
2022-10-29T18:14:57.390Z,101246.72
2022-10-29T18:17:24.032Z,101252.25
2022-10-29T18:19:50.566Z,101268.56
2022-10-29T18:22:17.070Z,101266.88
2022-10-29T18:24:43.607Z,101268.56
2022-10-29T18:27:10.103Z,101261.94
2022-10-29T18:29:36.610Z,101253.22
2022-10-29T18:32:03.283Z,101240.47
2022-10-29T18:34:31.629Z,101245.25
2022-10-29T18:36:58.228Z,101256.28
2022-10-29T18:39:24.723Z,101258.16
2022-10-29T18:41:51.215Z,101263.66
2022-10-29T18:44:17.756Z,101262.56
2022-10-29T18:46:44.313Z,101253.59
2022-10-29T18:49:12.992Z,101264.50
2022-10-29T18:51:39.893Z,101239.13
2022-10-29T18:54:06.433Z,101233.50
2022-10-29T18:56:32.928Z,101239.75
2022-10-29T18:59:00.399Z,101243.31
2022-10-29T19:01:31.408Z,101240.72
2022-10-29T19:04:04.190Z,101221.47
2022-10-29T19:06:33.363Z,101222.22
2022-10-29T19:09:01.600Z,101223.03
2022-10-29T19:11:29.234Z,101214.94
2022-10-29T19:14:06.582Z,101223.66
2022-10-29T19:16:33.952Z,101221.22
2022-10-29T19:21:38.761Z,101215.94
2022-10-29T19:24:06.521Z,101215.94
2022-10-29T19:26:35.350Z,101213.63
2022-10-29T19:29:03.245Z,101205.41
2022-10-29T19:31:31.554Z,101213.50
2022-10-29T19:34:00.644Z,101208.34
2022-10-29T19:36:28.690Z,101209.94
2022-10-29T19:38:55.812Z,101199.91
2022-10-29T19:41:22.463Z,101205.88
2022-10-29T19:43:49.211Z,101221.59
2022-10-29T19:46:17.984Z,101221.00
2022-10-29T19:48:49.401Z,101223.31
2022-10-29T19:51:15.916Z,101216.69
2022-10-29T19:53:42.404Z,101223.91
2022-10-29T19:56:11.722Z,101215.81
2022-10-29T19:58:38.514Z,101205.00
2022-10-29T20:01:07.159Z,101206.88
2022-10-29T20:03:33.694Z,101202.19
2022-10-29T20:06:00.390Z,101206.59
2022-10-29T20:08:27.465Z,101201.47
2022-10-29T20:10:58.553Z,101197.19
2022-10-29T20:13:26.398Z,101194.34
2022-10-29T20:15:53.722Z,101195.22
2022-10-29T20:18:20.856Z,101196.19
2022-10-29T20:20:53.442Z,101195.94
2022-10-29T20:23:19.999Z,101192.16
2022-10-29T20:25:46.499Z,101193.88
2022-10-29T20:28:13.255Z,101205.75
2022-10-29T20:30:39.767Z,101193.50
2022-10-29T20:33:06.272Z,101199.91
2022-10-29T20:35:32.822Z,101207.84
2022-10-29T20:37:59.660Z,101207.72
2022-10-29T20:40:26.331Z,101208.59
2022-10-29T20:42:52.889Z,101204.19
2022-10-29T20:45:19.914Z,101197.44
2022-10-29T20:47:46.667Z,101209.09
2022-10-29T20:50:13.225Z,101209.94
2022-10-29T20:52:42.248Z,101211.66
2022-10-29T20:55:12.296Z,101213.63
2022-10-29T20:57:38.813Z,101212.13
2022-10-29T21:00:05.965Z,101209.31
2022-10-29T21:02:32.530Z,101207.47
2022-10-29T21:04:59.121Z,101206.72
2022-10-29T21:07:25.601Z,101205.88
2022-10-29T21:09:52.159Z,101210.28
2022-10-29T21:12:18.672Z,101203.19
2022-10-29T21:14:45.228Z,101203.19
2022-10-29T21:17:11.764Z,101207.59
2022-10-29T21:19:38.321Z,101203.19
2022-10-29T21:22:04.861Z,101205.75
2022-10-29T21:24:31.377Z,101216.81
2022-10-29T21:26:57.862Z,101220.59
2022-10-29T21:29:24.405Z,101212.41
2022-10-29T21:31:50.897Z,101216.81
2022-10-29T21:34:17.382Z,101210.81
2022-10-29T21:36:43.952Z,101211.63
2022-10-29T21:39:10.465Z,101208.00
2022-10-29T21:41:36.953Z,101205.53
2022-10-29T21:44:03.606Z,101205.75
2022-10-29T21:46:30.083Z,101206.88
2022-10-29T21:48:56.736Z,101213.84
2022-10-29T21:51:23.274Z,101214.63
2022-10-29T21:53:49.960Z,101211.13
2022-10-29T21:56:16.564Z,101212.88
2022-10-29T21:58:43.765Z,101216.44
2022-10-29T22:01:12.891Z,101218.03
2022-10-29T22:03:41.555Z,101215.94
2022-10-29T22:06:16.531Z,101203.56
2022-10-29T22:08:43.634Z,101194.22
2022-10-29T22:11:11.424Z,101193.75
2022-10-29T22:13:38.440Z,101192.16
2022-10-29T22:16:06.979Z,101191.31
2022-10-29T22:18:34.554Z,101194.13
2022-10-29T22:21:03.793Z,101202.34
2022-10-29T22:23:30.349Z,101200.50
2022-10-29T22:25:56.870Z,101209.34
2022-10-29T22:28:23.375Z,101204.94
2022-10-29T22:30:57.196Z,101203.94
2022-10-29T22:33:23.762Z,101198.81
2022-10-29T22:35:50.237Z,101187.25
2022-10-29T22:38:16.732Z,101191.66
2022-10-29T22:40:43.226Z,101188.97
2022-10-29T22:43:09.811Z,101185.56
2022-10-29T22:45:36.302Z,101181.25
2022-10-29T22:48:02.948Z,101182.25
2022-10-29T22:50:29.561Z,101181.16
2022-10-29T22:52:56.200Z,101183.25
2022-10-29T22:55:22.993Z,101183.34
2022-10-29T22:57:49.461Z,101168.75
2022-10-29T23:00:16.038Z,101165.69
2022-10-29T23:02:42.601Z,101167.28
2022-10-29T23:05:09.163Z,101161.88
2022-10-29T23:07:35.653Z,101163.84
2022-10-29T23:10:02.137Z,101159.06
2022-10-29T23:12:28.661Z,101154.88
2022-10-29T23:14:55.131Z,101148.66
2022-10-29T23:17:21.620Z,101154.78
2022-10-29T23:19:48.096Z,101166.28
2022-10-29T23:24:46.113Z,101164.97
2022-10-29T23:27:12.594Z,101154.06
2022-10-29T23:29:39.092Z,101160.56
2022-10-29T23:32:05.610Z,101159.81
2022-10-29T23:34:32.078Z,101165.59
2022-10-29T23:37:00.426Z,101158.09
2022-10-29T23:39:28.687Z,101159.09
2022-10-29T23:41:55.155Z,101155.28
2022-10-29T23:44:21.650Z,101149.63
2022-10-29T23:46:48.158Z,101146.19
2022-10-29T23:49:14.924Z,101140.91
2022-10-29T23:51:41.473Z,101139.31
2022-10-29T23:54:07.981Z,101149.28
2022-10-29T23:56:34.462Z,101142.28
2022-10-29T23:59:00.940Z,101141.91
